Weather at Grand Bahama International Airport

Public forecast

Using degrees Celsius for public forecast. Weather courtesy of forecast.io.

Current aviation weather report (METAR) for Grand Bahama International Airport

Retrieved 2021/01/22 01:00 UTC (51 minutes ago):

MYGF 220100Z AUTO 16004KT 9999 FEW031/// 19/15 A3008

Aviation forecast (TAF) for Grand Bahama International Airport

Forecast is more than 12 hours old.

Retrieved 2021/01/20 18:28 UTC (1 day ago):

TAF MYGF 201615Z 2018/2118 34012KT 9999 FEW030 BECMG 2102/2104 VRB02KT